createdAt,value
2022-08-31T00:00:44.782Z,100059.00
2022-08-31T00:03:31.703Z,100071.56
2022-08-31T00:06:02.637Z,100065.19
2022-08-31T00:08:31.982Z,100050.72
2022-08-31T00:11:01.267Z,100056.75
2022-08-31T00:13:30.357Z,100044.56
2022-08-31T00:15:59.224Z,100067.88
2022-08-31T00:18:27.846Z,100057.66
2022-08-31T00:20:56.718Z,100061.28
2022-08-31T00:23:26.815Z,100070.75
2022-08-31T00:25:55.450Z,100069.25
2022-08-31T00:28:24.900Z,100065.84
2022-08-31T00:30:53.609Z,100073.63
2022-08-31T00:33:22.481Z,100053.00
2022-08-31T00:35:50.953Z,100069.44
2022-08-31T00:38:19.654Z,100063.28
2022-08-31T00:40:49.440Z,100053.06
2022-08-31T00:43:42.474Z,100062.00
2022-08-31T00:46:14.066Z,100050.06
2022-08-31T00:48:55.976Z,100067.38
2022-08-31T00:51:26.225Z,100032.94
2022-08-31T00:53:55.165Z,100055.16
2022-08-31T00:56:24.939Z,100062.69
2022-08-31T00:58:54.625Z,100064.50
2022-08-31T01:01:24.466Z,100057.47
2022-08-31T01:03:53.355Z,100055.09
2022-08-31T01:06:23.122Z,100049.56
2022-08-31T01:08:58.069Z,100067.19
2022-08-31T01:11:27.250Z,100057.41
2022-08-31T01:13:57.520Z,100054.16
2022-08-31T01:16:45.034Z,100074.34
2022-08-31T01:19:33.813Z,100053.97
2022-08-31T01:22:11.539Z,100071.25
2022-08-31T01:24:45.304Z,100050.88
2022-08-31T01:27:16.375Z,100051.03
2022-08-31T01:29:45.179Z,100055.94
2022-08-31T01:32:13.966Z,100059.97
2022-08-31T01:34:42.865Z,100029.88
2022-08-31T01:37:13.458Z,100038.88
2022-08-31T01:39:44.578Z,100039.13
2022-08-31T01:42:13.496Z,100042.28
2022-08-31T01:44:42.158Z,100043.38
2022-08-31T01:47:11.617Z,100042.06
2022-08-31T01:49:40.364Z,100039.38
2022-08-31T01:52:09.173Z,100041.00
2022-08-31T01:54:38.141Z,100039.72
2022-08-31T01:57:07.276Z,100037.56
2022-08-31T02:00:14.391Z,100043.00
2022-08-31T02:02:43.165Z,100052.25
2022-08-31T02:05:15.113Z,100040.53
2022-08-31T02:07:46.312Z,100050.56
2022-08-31T02:10:15.215Z,100037.28
2022-08-31T02:12:43.888Z,100036.25
2022-08-31T02:15:13.282Z,100036.16
2022-08-31T02:17:42.223Z,100019.53
2022-08-31T02:20:13.065Z,100040.25
2022-08-31T02:22:43.101Z,99996.16
2022-08-31T02:25:12.626Z,100032.34
2022-08-31T02:27:41.783Z,100044.41
2022-08-31T02:30:14.383Z,100038.69
2022-08-31T02:32:43.628Z,100034.84
2022-08-31T02:35:12.089Z,100034.25
2022-08-31T02:37:41.148Z,100028.94
2022-08-31T02:40:12.158Z,100026.81
2022-08-31T02:42:52.449Z,99997.78
2022-08-31T02:45:25.039Z,100029.22
2022-08-31T02:47:57.872Z,100026.00
2022-08-31T02:50:38.789Z,100013.94
2022-08-31T02:53:07.846Z,100022.34
2022-08-31T02:55:37.291Z,100014.72
2022-08-31T02:58:06.738Z,100013.50
2022-08-31T03:00:35.516Z,99987.22
2022-08-31T03:03:05.508Z,100027.44
2022-08-31T03:05:34.439Z,100023.41
2022-08-31T03:08:06.514Z,100007.44
2022-08-31T03:10:36.012Z,100016.13
2022-08-31T03:13:05.034Z,100008.66
2022-08-31T03:15:33.791Z,100005.47
2022-08-31T03:18:06.680Z,99992.94
2022-08-31T03:20:36.145Z,100003.31
2022-08-31T03:23:06.642Z,100015.09
2022-08-31T03:25:36.404Z,100016.13
2022-08-31T03:28:09.580Z,100005.28
2022-08-31T03:30:42.234Z,100009.38
2022-08-31T03:33:14.038Z,100030.78
2022-08-31T03:35:44.714Z,100013.78
2022-08-31T03:38:16.537Z,100002.94
2022-08-31T03:40:45.565Z,100023.78
2022-08-31T03:43:15.120Z,100008.44
2022-08-31T03:45:44.997Z,100020.25
2022-08-31T03:48:13.525Z,100009.41
2022-08-31T03:50:45.569Z,100019.22
2022-08-31T03:53:23.400Z,100015.63
2022-08-31T03:56:01.778Z,100007.09
2022-08-31T03:58:33.344Z,100013.69
2022-08-31T04:01:03.037Z,100023.66
2022-08-31T04:03:50.119Z,100009.63
2022-08-31T04:06:36.931Z,100020.69
2022-08-31T04:09:24.669Z,100009.78
2022-08-31T04:12:12.175Z,100007.44
2022-08-31T04:15:01.342Z,100016.13
2022-08-31T04:18:08.778Z,100016.50
2022-08-31T04:20:46.612Z,100003.78
2022-08-31T04:23:15.117Z,100016.56
2022-08-31T04:25:54.364Z,99988.06
2022-08-31T04:28:23.104Z,100000.78
2022-08-31T04:30:52.456Z,99994.75
2022-08-31T04:33:21.798Z,100004.22
2022-08-31T04:35:50.564Z,100008.03
2022-08-31T04:38:19.436Z,100009.50
2022-08-31T04:40:48.251Z,100004.34
2022-08-31T04:43:21.034Z,99994.31
2022-08-31T04:45:53.004Z,99999.38
2022-08-31T04:48:25.139Z,100020.81
2022-08-31T04:51:11.022Z,99998.00
2022-08-31T04:53:40.629Z,100002.41
2022-08-31T04:56:15.818Z,99993.22
2022-08-31T04:58:50.623Z,100003.31
2022-08-31T05:01:22.874Z,99994.75
2022-08-31T05:04:01.603Z,100011.75
2022-08-31T05:06:32.141Z,100001.94
2022-08-31T05:09:03.923Z,100013.50
2022-08-31T05:11:32.784Z,100012.63
2022-08-31T05:14:04.515Z,100012.22
2022-08-31T05:16:34.830Z,100011.38
2022-08-31T05:19:03.644Z,100015.59
2022-08-31T05:21:36.179Z,99964.44
2022-08-31T05:24:23.193Z,99989.78
2022-08-31T05:26:56.610Z,99986.25
2022-08-31T05:29:26.760Z,99992.09
2022-08-31T05:32:12.965Z,100002.97
2022-08-31T05:34:41.717Z,99996.09
2022-08-31T05:37:10.457Z,99994.16
2022-08-31T05:39:39.377Z,99989.94
2022-08-31T05:42:08.853Z,100001.41
2022-08-31T05:44:38.096Z,99994.03
2022-08-31T05:47:10.564Z,99978.72
2022-08-31T05:49:42.991Z,99990.25
2022-08-31T05:52:16.664Z,99978.84
2022-08-31T05:54:45.417Z,99969.13
2022-08-31T05:57:14.443Z,99980.78
2022-08-31T05:59:44.208Z,99958.78
2022-08-31T06:02:12.891Z,99968.56
2022-08-31T06:04:41.715Z,99959.66
2022-08-31T06:07:11.324Z,99959.59
2022-08-31T06:09:47.754Z,99967.06
2022-08-31T06:12:20.897Z,99947.75
2022-08-31T06:14:53.253Z,99949.91
2022-08-31T06:17:22.308Z,99952.47
2022-08-31T06:19:52.379Z,99941.03
2022-08-31T06:22:21.280Z,99941.94
2022-08-31T06:24:51.095Z,99915.66
2022-08-31T06:27:19.849Z,99907.63
2022-08-31T06:29:50.186Z,99946.34
2022-08-31T06:32:21.776Z,99936.19
2022-08-31T06:34:58.738Z,99916.25
2022-08-31T06:38:02.814Z,99940.44
2022-08-31T06:41:18.601Z,99925.47
2022-08-31T06:44:12.458Z,99919.47
2022-08-31T06:46:58.893Z,99924.41
2022-08-31T06:49:33.580Z,99929.91
2022-08-31T06:52:02.202Z,99922.47
2022-08-31T06:54:32.954Z,99917.28
2022-08-31T06:57:20.304Z,99923.75
2022-08-31T07:00:08.869Z,99910.28
2022-08-31T07:02:57.426Z,99908.06
2022-08-31T07:05:27.302Z,99912.75
2022-08-31T07:07:56.436Z,99919.31
2022-08-31T07:10:25.245Z,99915.97
2022-08-31T07:12:53.734Z,99914.19
2022-08-31T07:15:22.315Z,99906.28
2022-08-31T07:17:52.553Z,99912.16
2022-08-31T07:20:21.354Z,99897.16
2022-08-31T07:22:50.756Z,99907.13
2022-08-31T07:25:36.052Z,99909.38
2022-08-31T07:28:05.848Z,99894.88
2022-08-31T07:30:42.820Z,99903.38
2022-08-31T07:33:15.577Z,99910.03
2022-08-31T07:35:50.187Z,99885.00
2022-08-31T07:38:48.397Z,99888.31
2022-08-31T07:41:55.574Z,99900.81
2022-08-31T07:44:25.161Z,99899.63
2022-08-31T07:46:55.942Z,99891.91
2022-08-31T07:49:26.945Z,99890.72
2022-08-31T07:52:13.401Z,99877.25
2022-08-31T07:55:07.124Z,99885.84
2022-08-31T07:57:57.055Z,99881.56
2022-08-31T08:00:29.721Z,99880.72
2022-08-31T08:03:08.129Z,99866.22
2022-08-31T08:05:59.792Z,99840.91
2022-08-31T08:09:19.386Z,99857.84
2022-08-31T08:12:09.428Z,99872.94
2022-08-31T08:14:59.818Z,99872.59
2022-08-31T08:17:40.280Z,99857.19
2022-08-31T08:20:13.749Z,99860.84
2022-08-31T08:22:54.069Z,99850.22
2022-08-31T08:25:35.530Z,99872.34
2022-08-31T08:31:08.678Z,99870.09
2022-08-31T08:33:37.613Z,99865.38
2022-08-31T08:36:08.799Z,99865.28
2022-08-31T08:38:43.152Z,99845.13
2022-08-31T08:41:28.009Z,99857.22
2022-08-31T08:44:01.462Z,99850.00
2022-08-31T08:46:39.638Z,99858.25
2022-08-31T08:49:16.633Z,99844.88
2022-08-31T08:51:54.464Z,99822.38
2022-08-31T08:54:46.332Z,99850.06
2022-08-31T08:57:19.574Z,99845.41
2022-08-31T08:59:51.960Z,99798.63
2022-08-31T09:02:36.046Z,99825.63
2022-08-31T09:05:19.828Z,99813.72
2022-08-31T09:08:14.165Z,99820.75
2022-08-31T09:11:20.026Z,99820.16
2022-08-31T09:14:20.231Z,99817.06
2022-08-31T09:17:02.696Z,99822.91
2022-08-31T09:19:51.467Z,99809.44
2022-08-31T09:22:20.770Z,99815.41
2022-08-31T09:25:00.219Z,99813.50
2022-08-31T09:28:00.039Z,99799.53
2022-08-31T09:30:43.368Z,99810.38
2022-08-31T09:33:24.120Z,99797.16
2022-08-31T09:35:57.588Z,99787.63
2022-08-31T09:38:41.048Z,99761.53
2022-08-31T09:41:33.697Z,99790.59
2022-08-31T09:44:25.868Z,99791.47
2022-08-31T09:47:00.028Z,99786.44
2022-08-31T09:49:32.487Z,99786.44
2022-08-31T09:52:43.907Z,99783.47
2022-08-31T09:55:19.218Z,99773.47
2022-08-31T09:57:56.567Z,99757.72
2022-08-31T10:00:40.551Z,99751.69
2022-08-31T10:03:22.840Z,99768.69
2022-08-31T10:05:56.669Z,99754.06
2022-08-31T10:08:43.195Z,99749.91
2022-08-31T10:11:21.558Z,99755.50
2022-08-31T10:13:58.398Z,99758.25
2022-08-31T10:16:42.428Z,99758.47
2022-08-31T10:19:20.233Z,99737.16
2022-08-31T10:22:00.808Z,99726.56
2022-08-31T10:24:34.907Z,99755.59
2022-08-31T10:27:09.403Z,99742.03
2022-08-31T10:29:50.215Z,99729.75
2022-08-31T10:32:56.909Z,99727.72
2022-08-31T10:35:37.975Z,99742.25
2022-08-31T10:38:26.896Z,99730.47
2022-08-31T10:41:18.783Z,99713.91
2022-08-31T10:44:09.909Z,99732.34
2022-08-31T10:46:38.780Z,99731.06
2022-08-31T10:49:07.969Z,99713.13
2022-08-31T10:52:07.009Z,99739.66
2022-08-31T10:54:55.551Z,99737.06
2022-08-31T10:57:39.161Z,99733.00
2022-08-31T11:00:34.866Z,99719.88
2022-08-31T11:03:29.848Z,99717.59
2022-08-31T11:06:03.886Z,99713.34
2022-08-31T11:08:38.605Z,99721.41
2022-08-31T11:11:11.837Z,99678.13
2022-08-31T11:14:00.848Z,99711.09
2022-08-31T11:17:03.049Z,99713.59
2022-08-31T11:20:02.134Z,99714.75
2022-08-31T11:23:06.330Z,99682.50
2022-08-31T11:25:59.769Z,99701.69
2022-08-31T11:28:36.914Z,99709.38
2022-08-31T11:31:24.247Z,99687.69
2022-08-31T11:37:05.714Z,99695.41
2022-08-31T11:39:37.817Z,99691.28
2022-08-31T11:42:19.739Z,99677.31
2022-08-31T11:45:02.635Z,99689.63
2022-08-31T11:47:31.310Z,99684.72
2022-08-31T11:50:06.136Z,99685.25
2022-08-31T11:52:46.058Z,99691.03
2022-08-31T11:55:31.577Z,99679.22
2022-08-31T11:58:10.752Z,99678.75
2022-08-31T12:00:52.772Z,99674.94
2022-08-31T12:03:38.477Z,99670.78
2022-08-31T12:06:29.806Z,99665.34
2022-08-31T12:09:43.745Z,99651.00
2022-08-31T12:12:47.067Z,99668.75
2022-08-31T12:15:16.033Z,99667.53
2022-08-31T12:18:06.237Z,99663.41
2022-08-31T12:21:02.427Z,99664.34
2022-08-31T12:24:07.629Z,99662.34
2022-08-31T12:26:49.614Z,99651.53
2022-08-31T12:29:23.940Z,99661.38
2022-08-31T12:32:43.046Z,99659.53
2022-08-31T12:35:20.696Z,99655.81
2022-08-31T12:38:18.027Z,99653.81
2022-08-31T12:40:55.291Z,99652.59
2022-08-31T12:43:47.350Z,99655.38
2022-08-31T12:46:31.863Z,99628.44
2022-08-31T12:49:25.367Z,99629.72
2022-08-31T12:52:29.358Z,99642.78
2022-08-31T12:55:13.229Z,99639.72
2022-08-31T12:57:50.506Z,99636.19
2022-08-31T13:00:35.244Z,99627.09
2022-08-31T13:03:29.788Z,99634.25
2022-08-31T13:06:08.706Z,99645.56
2022-08-31T13:08:46.345Z,99644.97
2022-08-31T13:11:24.147Z,99650.25
2022-08-31T13:14:21.525Z,99640.06
2022-08-31T13:16:53.464Z,99630.47
2022-08-31T13:19:30.268Z,99648.88
2022-08-31T13:22:05.767Z,99636.13
2022-08-31T13:24:53.486Z,99642.22
2022-08-31T13:27:25.418Z,99638.44
2022-08-31T13:29:57.038Z,99647.59
2022-08-31T13:32:26.166Z,99642.34
2022-08-31T13:34:55.906Z,99638.97
2022-08-31T13:37:33.774Z,99630.31
2022-08-31T13:40:10.661Z,99634.84
2022-08-31T13:42:56.977Z,99629.97
2022-08-31T13:45:28.285Z,99640.97
2022-08-31T13:48:07.154Z,99631.44
2022-08-31T13:50:49.993Z,99630.88
2022-08-31T13:53:45.825Z,99643.63
2022-08-31T13:56:48.672Z,99634.69
2022-08-31T13:59:33.737Z,99619.28
2022-08-31T14:02:16.947Z,99644.91
2022-08-31T14:05:05.803Z,99646.97
2022-08-31T14:07:39.874Z,99651.59
2022-08-31T14:10:20.960Z,99641.00
2022-08-31T14:12:57.790Z,99642.34
2022-08-31T14:15:41.593Z,99650.66
2022-08-31T14:18:26.614Z,99622.25
2022-08-31T14:21:20.467Z,99651.47
2022-08-31T14:24:11.128Z,99655.09
2022-08-31T14:26:45.385Z,99637.16
2022-08-31T14:29:16.321Z,99648.41
2022-08-31T14:31:54.568Z,99656.53
2022-08-31T14:34:32.917Z,99657.34
2022-08-31T14:37:07.599Z,99614.19
2022-08-31T14:39:48.118Z,99645.69
2022-08-31T14:42:30.377Z,99658.88
2022-08-31T14:45:07.300Z,99648.19
2022-08-31T14:47:44.619Z,99647.06
2022-08-31T14:50:19.660Z,99632.44
2022-08-31T14:52:58.979Z,99646.81
2022-08-31T14:55:30.698Z,99651.75
2022-08-31T14:58:06.010Z,99637.34
2022-08-31T15:00:38.430Z,99612.31
2022-08-31T15:03:07.261Z,99622.94
2022-08-31T15:05:40.133Z,99640.13
2022-08-31T15:08:10.202Z,99639.94
2022-08-31T15:10:39.082Z,99658.00
2022-08-31T15:13:11.522Z,99630.56
2022-08-31T15:15:40.240Z,99644.38
2022-08-31T15:18:10.519Z,99643.00
2022-08-31T15:20:42.300Z,99612.56
2022-08-31T15:23:10.892Z,99651.94
2022-08-31T15:25:40.060Z,99641.34
2022-08-31T15:28:09.300Z,99643.03
2022-08-31T15:30:40.597Z,99648.41
2022-08-31T15:33:10.978Z,99638.66
2022-08-31T15:35:42.310Z,99642.19
2022-08-31T15:38:12.386Z,99633.06
2022-08-31T15:40:41.258Z,99645.03
2022-08-31T15:43:16.127Z,99633.41
2022-08-31T15:45:45.527Z,99624.63
2022-08-31T15:48:32.700Z,99626.63
2022-08-31T15:51:02.119Z,99624.94
2022-08-31T15:53:31.460Z,99621.91
2022-08-31T15:56:10.300Z,99630.66
2022-08-31T15:58:39.940Z,99613.81
2022-08-31T16:01:17.082Z,99628.25
2022-08-31T16:03:51.679Z,99629.41
2022-08-31T16:06:26.538Z,99615.75
2022-08-31T16:08:58.458Z,99630.88
2022-08-31T16:11:37.049Z,99635.78
2022-08-31T16:14:10.726Z,99613.66
2022-08-31T16:16:44.813Z,99620.59
2022-08-31T16:19:28.061Z,99620.38
2022-08-31T16:22:04.914Z,99612.28
2022-08-31T16:24:38.079Z,99619.84
2022-08-31T16:27:12.106Z,99619.28
2022-08-31T16:29:45.446Z,99610.81
2022-08-31T16:32:14.389Z,99608.13
2022-08-31T16:34:43.437Z,99606.22
2022-08-31T16:37:12.250Z,99607.41
2022-08-31T16:39:43.679Z,99605.53
2022-08-31T16:42:14.054Z,99585.47
2022-08-31T16:44:47.874Z,99594.22
2022-08-31T16:47:19.415Z,99593.31
2022-08-31T16:49:48.397Z,99611.34
2022-08-31T16:52:22.276Z,99592.31
2022-08-31T16:54:53.496Z,99595.50
2022-08-31T16:57:24.910Z,99609.31
2022-08-31T16:59:55.131Z,99574.25
2022-08-31T17:02:25.588Z,99603.56
2022-08-31T17:04:57.106Z,99563.78
2022-08-31T17:07:26.293Z,99582.28
2022-08-31T17:10:02.577Z,99589.47
2022-08-31T17:12:33.397Z,99584.50
2022-08-31T17:15:04.046Z,99582.59
2022-08-31T17:17:36.074Z,99593.88
2022-08-31T17:20:07.410Z,99578.28
2022-08-31T17:22:36.811Z,99583.97
2022-08-31T17:25:06.208Z,99586.97
2022-08-31T17:27:37.465Z,99543.00
2022-08-31T17:30:08.859Z,99584.41
2022-08-31T17:32:44.835Z,99565.38
2022-08-31T17:35:19.455Z,99548.66
2022-08-31T17:37:51.313Z,99528.88
2022-08-31T17:40:20.771Z,99572.72
2022-08-31T17:42:51.076Z,99571.34
2022-08-31T17:45:21.997Z,99573.56
2022-08-31T17:47:50.539Z,99582.59
2022-08-31T17:50:21.930Z,99554.78
2022-08-31T17:52:54.649Z,99562.50
2022-08-31T17:55:23.417Z,99571.63
2022-08-31T17:57:52.258Z,99539.91
2022-08-31T18:00:21.080Z,99564.88
2022-08-31T18:02:49.671Z,99563.19
2022-08-31T18:05:18.458Z,99549.16
2022-08-31T18:07:50.565Z,99537.91
2022-08-31T18:10:19.684Z,99551.72
2022-08-31T18:12:48.161Z,99550.31
2022-08-31T18:15:19.820Z,99547.25
2022-08-31T18:17:48.724Z,99526.88
2022-08-31T18:20:17.426Z,99543.34
2022-08-31T18:22:51.509Z,99543.66
2022-08-31T18:25:21.279Z,99546.50
2022-08-31T18:27:50.056Z,99512.06
2022-08-31T18:30:21.754Z,99498.16
2022-08-31T18:32:50.440Z,99521.41
2022-08-31T18:35:19.494Z,99548.69
2022-08-31T18:37:48.485Z,99541.78
2022-08-31T18:40:36.106Z,99533.66
2022-08-31T18:43:23.125Z,99529.44
2022-08-31T18:45:52.234Z,99533.41
2022-08-31T18:48:25.533Z,99511.75
2022-08-31T18:50:56.097Z,99522.47
2022-08-31T18:53:28.789Z,99513.44
2022-08-31T18:56:11.040Z,99507.06
2022-08-31T18:58:41.209Z,99510.16
2022-08-31T19:01:14.342Z,99475.88
2022-08-31T19:03:43.389Z,99505.09
2022-08-31T19:06:19.300Z,99515.22
2022-08-31T19:08:49.693Z,99497.25
2022-08-31T19:11:23.523Z,99507.38
2022-08-31T19:13:53.430Z,99503.59
2022-08-31T19:16:28.228Z,99499.41
2022-08-31T19:18:58.898Z,99504.47
2022-08-31T19:21:30.509Z,99494.78
2022-08-31T19:24:01.607Z,99481.56
2022-08-31T19:26:38.067Z,99486.63
2022-08-31T19:29:15.068Z,99503.78
2022-08-31T19:31:46.742Z,99491.28
2022-08-31T19:34:19.006Z,99489.59
2022-08-31T19:36:52.585Z,99479.47
2022-08-31T19:39:25.686Z,99466.69
2022-08-31T19:41:57.145Z,99490.84
2022-08-31T19:44:29.326Z,99452.91
2022-08-31T19:47:24.747Z,99481.03
2022-08-31T19:49:53.881Z,99428.03
2022-08-31T19:52:25.525Z,99472.88
2022-08-31T19:54:54.088Z,99450.81
2022-08-31T19:57:23.304Z,99445.31
2022-08-31T19:59:51.975Z,99451.41
2022-08-31T20:02:21.054Z,99455.59
2022-08-31T20:04:49.487Z,99438.03
2022-08-31T20:07:20.030Z,99434.66
2022-08-31T20:09:48.887Z,99410.47
2022-08-31T20:12:19.476Z,99391.25
2022-08-31T20:14:47.995Z,99430.16
2022-08-31T20:17:16.813Z,99438.31
2022-08-31T20:19:46.206Z,99422.47
2022-08-31T20:22:14.735Z,99413.31
2022-08-31T20:24:45.042Z,99421.75
2022-08-31T20:27:18.762Z,99425.69
2022-08-31T20:29:48.609Z,99412.19
2022-08-31T20:32:17.459Z,99412.19
2022-08-31T20:34:46.003Z,99427.81
2022-08-31T20:37:14.600Z,99416.97
2022-08-31T20:39:43.564Z,99423.84
2022-08-31T20:42:12.479Z,99405.44
2022-08-31T20:44:49.106Z,99398.56
2022-08-31T20:47:36.066Z,99395.06
2022-08-31T20:50:08.186Z,99419.22
2022-08-31T20:52:36.810Z,99393.63
2022-08-31T20:55:07.218Z,99422.16
2022-08-31T20:57:41.682Z,99379.56
2022-08-31T21:00:11.530Z,99410.09
2022-08-31T21:02:42.868Z,99389.28
2022-08-31T21:08:01.085Z,99411.34
2022-08-31T21:10:37.985Z,99397.00
2022-08-31T21:13:10.523Z,99370.59
2022-08-31T21:15:46.834Z,99411.34
2022-08-31T21:18:19.916Z,99407.00
2022-08-31T21:20:52.086Z,99388.84
2022-08-31T21:23:21.134Z,99400.66
2022-08-31T21:25:50.283Z,99405.75
2022-08-31T21:28:18.986Z,99405.84
2022-08-31T21:30:50.664Z,99393.91
2022-08-31T21:33:20.175Z,99395.31
2022-08-31T21:35:48.767Z,99385.75
2022-08-31T21:38:18.944Z,99391.09
2022-08-31T21:40:51.931Z,99397.56
2022-08-31T21:43:21.128Z,99404.59
2022-08-31T21:46:00.429Z,99379.72
2022-08-31T21:48:30.548Z,99381.13
2022-08-31T21:51:00.934Z,99352.59
2022-08-31T21:53:31.870Z,99377.63
2022-08-31T21:56:02.982Z,99388.56
2022-08-31T21:58:32.133Z,99383.78
2022-08-31T22:01:01.067Z,99395.31
2022-08-31T22:03:36.908Z,99391.94
2022-08-31T22:06:10.252Z,99385.75
2022-08-31T22:08:41.005Z,99385.19
2022-08-31T22:11:18.464Z,99364.97
2022-08-31T22:13:49.512Z,99372.69
2022-08-31T22:16:20.376Z,99383.50
2022-08-31T22:19:02.098Z,99363.00
2022-08-31T22:21:34.855Z,99355.06
2022-08-31T22:24:07.023Z,99367.91
2022-08-31T22:26:39.745Z,99361.38
2022-08-31T22:29:11.293Z,99359.00
2022-08-31T22:31:41.716Z,99370.38
2022-08-31T22:34:12.691Z,99364.47
2022-08-31T22:36:42.002Z,99347.75
2022-08-31T22:39:17.263Z,99357.88
2022-08-31T22:41:48.182Z,99348.59
2022-08-31T22:44:19.744Z,99332.00
2022-08-31T22:46:49.464Z,99350.28
2022-08-31T22:49:18.298Z,99342.13
2022-08-31T22:51:50.108Z,99354.63
2022-08-31T22:54:21.163Z,99346.94
2022-08-31T22:56:50.382Z,99336.25
2022-08-31T22:59:26.644Z,99334.56
2022-08-31T23:02:03.057Z,99334.75
2022-08-31T23:04:35.029Z,99341.06
2022-08-31T23:07:05.037Z,99331.25
2022-08-31T23:09:34.805Z,99315.66
2022-08-31T23:12:05.824Z,99329.84
2022-08-31T23:14:34.534Z,99316.06
2022-08-31T23:17:09.443Z,99322.81
2022-08-31T23:19:43.751Z,99319.72
2022-08-31T23:22:15.575Z,99302.97
2022-08-31T23:24:49.883Z,99213.78
2022-08-31T23:27:23.324Z,99302.59
2022-08-31T23:29:55.652Z,99315.50
2022-08-31T23:32:28.284Z,99309.59
2022-08-31T23:34:59.085Z,99310.59
2022-08-31T23:37:28.684Z,99285.69
2022-08-31T23:39:59.486Z,99277.81
2022-08-31T23:42:29.664Z,99297.50
2022-08-31T23:44:59.703Z,99269.09
2022-08-31T23:47:33.624Z,99293.84
2022-08-31T23:50:08.645Z,99281.03
2022-08-31T23:52:42.234Z,99277.81
2022-08-31T23:55:14.745Z,99259.84
2022-08-31T23:57:45.303Z,99233.69
